Login to view products. 
Thursday, January 19, 2017 (02:11 UTC)
Dubai International Airport
Last Updated: 19-01-2017 (02:07Z)
Wind Dir/Speed: NE at 1 KT
Temperature: 18.9 °C
Rel. Humidity: 63 %
Pressure: 1019.1 hPa
Visibility: 10000 m
  • METAR OMDB 190200Z 04004KT 330V080 CAVOK 19/12 Q1018 NOSIG
  • TAF OMDB 182259Z 1900/2006 10005KT CAVOK BECMG 1909/1911 34010KT BECMG 1915/1917 08008KT BECMG 2004/2006 18010KT=